Time;durP1;ratioP1;P1;durP2;ratioP2;P2;SDS_P1;SDS_P2;PMS_P1;PMS_P2;Temp;Humidity;BMP_temperature;BMP_pressure;BME280_temperature;BME280_humidity;BME280_pressure;Samples;Min_cycle;Max_cycle;Signal;HPM_P1;HPM_P2
2022/11/05 00:10:02;;;;;;;24.70;11.60;;;;;;;;;;5261752;27;20004;-74
2022/11/05 00:17:55;;;;;;;26.40;12.27;;;;;;;;;;5262696;27;20038;-71
2022/11/05 00:20:20;;;;;;;;;;;;;;;;;;5263227;27;20033;-71
2022/11/05 00:25:30;;;;;;;22.90;11.40;;;;;;;;;;5263092;27;20514;-71
2022/11/05 00:27:55;;;;;;;;;;;;;;;;;;5262102;27;20002;-70
2022/11/05 00:30:21;;;;;;;29.77;12.82;;;;;;;;;;5261611;27;20099;-71
2022/11/05 00:32:47;;;;;;;23.67;12.77;;;;;;;;;;5260735;27;20009;-71
2022/11/05 00:35:12;;;;;;;;;;;;;;;;;;5263657;27;20013;-71
2022/11/05 00:37:38;;;;;;;25.42;14.00;;;;;;;;;;5261561;27;19937;-71
2022/11/05 00:40:03;;;;;;;;;;;;;;;;;;5262353;27;20114;-71
2022/11/05 00:45:12;;;;;;;30.23;14.65;;;;;;;;;;5261665;27;20132;-71
2022/11/05 00:50:21;;;;;;;26.50;12.75;;;;;;;;;;5262803;27;19960;-71
2022/11/05 00:52:55;;;;;;;;;;;;;;;;;;5260840;27;20372;-71
2022/11/05 00:55:28;;;;;;;24.67;10.70;;;;;;;;;;5260782;27;19929;-71
2022/11/05 00:57:54;;;;;;;24.42;10.35;;;;;;;;;;5242585;27;20323;-71
2022/11/05 01:00:19;;;;;;;;;;;;;;;;;;5263230;27;20002;-71
2022/11/05 01:02:45;;;;;;;35.78;12.63;;;;;;;;;;5262988;27;19929;-71
2022/11/05 01:05:10;;;;;;;25.15;11.70;;;;;;;;;;5260244;27;20376;-72
2022/11/05 01:07:35;;;;;;;;;;;;;;;;;;5263204;27;20044;-71
2022/11/05 01:10:00;;;;;;;19.60;11.25;;;;;;;;;;5259169;27;19963;-72
2022/11/05 01:12:25;;;;;;;;;;;;;;;;;;5260600;27;20420;-72
2022/11/05 01:14:51;;;;;;;17.58;11.07;;;;;;;;;;5262915;27;20003;-72
2022/11/05 01:17:16;;;;;;;;;;;;;;;;;;5241334;27;20008;-71
2022/11/05 01:19:41;;;;;;;16.20;10.02;;;;;;;;;;5263051;27;19953;-71
2022/11/05 01:22:06;;;;;;;;;;;;;;;;;;5263953;27;20005;-71
2022/11/05 01:24:32;;;;;;;16.60;9.40;;;;;;;;;;5260741;27;19928;-72
2022/11/05 01:26:57;;;;;;;20.70;10.95;;;;;;;;;;5262559;27;20061;-72
2022/11/05 01:29:22;;;;;;;22.37;12.90;;;;;;;;;;5262573;27;20384;-72
2022/11/05 01:31:47;;;;;;;;;;;;;;;;;;5260548;27;20002;-70
2022/11/05 01:34:12;;;;;;;46.10;25.25;;;;;;;;;;5262358;27;19939;-71
2022/11/05 01:36:38;;;;;;;29.73;18.37;;;;;;;;;;5261129;27;20001;-72
2022/11/05 01:39:03;;;;;;;;;;;;;;;;;;5262230;27;20002;-72
2022/11/05 01:41:28;;;;;;;25.20;11.74;;;;;;;;;;5260434;27;19951;-72
2022/11/05 01:43:53;;;;;;;;;;;;;;;;;;5262975;27;20016;-71
2022/11/05 01:46:20;;;;;;;20.90;9.95;;;;;;;;;;5260569;27;19952;-71
2022/11/05 01:48:47;;;;;;;17.92;12.32;;;;;;;;;;5262952;27;20150;-71
2022/11/05 01:51:14;;;;;;;18.45;10.35;;;;;;;;;;5262029;27;20426;-72
2022/11/05 01:53:57;;;;;;;16.12;9.60;;;;;;;;;;5260847;27;20001;-72
2022/11/05 01:56:31;;;;;;;26.73;10.50;;;;;;;;;;5243360;27;19998;-71
2022/11/05 01:58:56;;;;;;;19.98;9.52;;;;;;;;;;5261464;27;20041;-72
2022/11/05 02:01:21;;;;;;;;;;;;;;;;;;5261633;27;20013;-72
2022/11/05 02:03:47;;;;;;;22.25;9.50;;;;;;;;;;5260911;27;19933;-72
2022/11/05 02:06:14;;;;;;;19.35;9.68;;;;;;;;;;5263140;27;20044;-72
2022/11/05 02:08:43;;;;;;;20.05;10.05;;;;;;;;;;5262031;27;20010;-71
2022/11/05 02:11:10;;;;;;;13.62;8.63;;;;;;;;;;5262408;27;20032;-70
2022/11/05 02:13:35;;;;;;;18.90;9.60;;;;;;;;;;5262165;27;20403;-71
2022/11/05 02:16:00;;;;;;;;;;;;;;;;;;5262571;27;20059;-72
2022/11/05 02:18:39;;;;;;;17.73;10.05;;;;;;;;;;5258514;27;19929;-72
2022/11/05 02:21:11;;;;;;;17.62;9.40;;;;;;;;;;5258434;27;20304;-72
2022/11/05 02:23:48;;;;;;;54.00;35.85;;;;;;;;;;5260270;27;20002;-72
2022/11/05 02:26:32;;;;;;;27.45;20.27;;;;;;;;;;5258222;27;20053;-71
2022/11/05 02:29:13;;;;;;;20.83;12.60;;;;;;;;;;5261819;27;20036;-71
2022/11/05 02:31:38;;;;;;;17.37;10.68;;;;;;;;;;5262566;27;20031;-72
2022/11/05 02:34:03;;;;;;;15.93;9.45;;;;;;;;;;5261859;27;20002;-71
2022/11/05 02:36:28;;;;;;;36.70;26.08;;;;;;;;;;5259770;27;20046;-72
2022/11/05 02:38:53;;;;;;;;;;;;;;;;;;5261374;27;20001;-72
2022/11/05 02:41:37;;;;;;;20.20;11.93;;;;;;;;;;5261773;27;19975;-71
2022/11/05 02:44:02;;;;;;;22.27;11.10;;;;;;;;;;5262095;27;20005;-72
2022/11/05 02:46:27;;;;;;;;;;;;;;;;;;5262267;27;20401;-71
2022/11/05 02:49:08;;;;;;;15.23;8.55;;;;;;;;;;5258363;27;19928;-71
2022/11/05 02:51:36;;;;;;;20.58;8.68;;;;;;;;;;5261975;27;20098;-72
2022/11/05 02:54:04;;;;;;;15.55;9.23;;;;;;;;;;5260154;27;20096;-72
2022/11/05 02:56:31;;;;;;;32.17;16.30;;;;;;;;;;5261140;27;20024;-73
2022/11/05 02:58:56;;;;;;;18.67;11.40;;;;;;;;;;5259725;27;20036;-72
2022/11/05 03:01:21;;;;;;;;;;;;;;;;;;5260140;27;20006;-72
2022/11/05 03:03:52;;;;;;;13.73;6.40;;;;;;;;;;5258055;27;19951;-71
2022/11/05 03:06:36;;;;;;;16.58;8.18;;;;;;;;;;5260813;27;20059;-72
2022/11/05 03:09:01;;;;;;;13.95;6.85;;;;;;;;;;5262043;27;20053;-72
2022/11/05 03:11:28;;;;;;;11.30;6.22;;;;;;;;;;5259524;27;20012;-72
2022/11/05 03:13:56;;;;;;;19.85;7.60;;;;;;;;;;5261986;27;20021;-72
2022/11/05 03:16:37;;;;;;;15.23;7.47;;;;;;;;;;5260675;27;20026;-72
2022/11/05 03:19:02;;;;;;;8.95;5.95;;;;;;;;;;5262439;27;19997;-71
2022/11/05 03:21:27;;;;;;;;;;;;;;;;;;5258394;27;20012;-72
2022/11/05 03:23:55;;;;;;;10.10;5.55;;;;;;;;;;5259860;27;19936;-72
2022/11/05 03:26:24;;;;;;;13.35;5.82;;;;;;;;;;5259783;27;20024;-73
2022/11/05 03:28:52;;;;;;;14.10;5.72;;;;;;;;;;5257980;27;20327;-73
2022/11/05 03:31:18;;;;;;;7.75;4.57;;;;;;;;;;5260222;27;20021;-72
2022/11/05 03:33:43;;;;;;;;;;;;;;;;;;5260813;27;20001;-71
2022/11/05 03:36:12;;;;;;;8.77;4.10;;;;;;;;;;5259142;27;20216;-71
2022/11/05 03:38:39;;;;;;;6.90;3.80;;;;;;;;;;5259734;27;20001;-71
2022/11/05 03:41:07;;;;;;;7.53;4.12;;;;;;;;;;5259860;27;20017;-70
2022/11/05 03:43:37;;;;;;;9.73;4.50;;;;;;;;;;5262297;27;20044;-70
2022/11/05 03:46:08;;;;;;;6.50;3.83;;;;;;;;;;5260268;27;20047;-70
2022/11/05 03:48:37;;;;;;;12.48;3.58;;;;;;;;;;5260076;27;20373;-70
2022/11/05 03:51:22;;;;;;;6.47;3.50;;;;;;;;;;5263177;27;20030;-70
2022/11/05 03:53:53;;;;;;;14.52;4.50;;;;;;;;;;5261033;27;20137;-72
2022/11/05 03:56:25;;;;;;;8.23;3.17;;;;;;;;;;5262293;27;20043;-70
2022/11/05 03:58:51;;;;;;;8.60;3.78;;;;;;;;;;5263353;27;20010;-70
2022/11/05 04:01:16;;;;;;;;;;;;;;;;;;5263975;27;20335;-69
2022/11/05 04:03:41;;;;;;;7.12;3.42;;;;;;;;;;5260691;27;19956;-69
2022/11/05 04:14:18;;;;;;;20.73;7.05;;;;;;;;;;5263168;27;20333;-69
2022/11/05 04:24:57;;;;;;;14.50;6.22;;;;;;;;;;5227073;27;20002;-70
2022/11/05 04:27:22;;;;;;;;;;;;;;;;;;5264085;27;20012;-68
2022/11/05 04:32:31;;;;;;;12.40;6.00;;;;;;;;;;5263380;27;20001;-69
2022/11/05 04:34:56;;;;;;;;;;;;;;;;;;5263728;27;20367;-68
2022/11/05 04:37:21;;;;;;;9.20;5.97;;;;;;;;;;5263238;27;19963;-68
2022/11/05 04:39:47;;;;;;;13.13;5.28;;;;;;;;;;5261690;27;20036;-71
2022/11/05 04:42:12;;;;;;;12.00;6.37;;;;;;;;;;5259227;27;20033;-69
2022/11/05 04:44:37;;;;;;;;;;;;;;;;;;5261469;27;20013;-68
2022/11/05 04:47:02;;;;;;;18.08;5.70;;;;;;;;;;5259300;27;19999;-69
2022/11/05 04:49:27;;;;;;;;;;;;;;;;;;5261076;27;20143;-69
2022/11/05 04:51:52;;;;;;;11.88;6.68;;;;;;;;;;5260509;27;19952;-69
2022/11/05 04:54:17;;;;;;;9.60;5.80;;;;;;;;;;5263563;27;20002;-68
2022/11/05 04:56:42;;;;;;;;;;;;;;;;;;5264211;27;20001;-68
2022/11/05 04:59:08;;;;;;;10.38;5.80;;;;;;;;;;5261972;27;19929;-69
2022/11/05 05:01:33;;;;;;;14.15;5.10;;;;;;;;;;5262737;27;20001;-69
2022/11/05 05:03:58;;;;;;;5.65;4.32;;;;;;;;;;5261084;27;20089;-69
2022/11/05 05:06:23;;;;;;;;;;;;;;;;;;5263039;27;20020;-69
2022/11/05 05:08:49;;;;;;;13.38;5.12;;;;;;;;;;5260554;27;19973;-70
2022/11/05 05:11:16;;;;;;;9.63;5.07;;;;;;;;;;5260997;27;20433;-69
2022/11/05 05:13:42;;;;;;;9.73;4.32;;;;;;;;;;5263361;27;20033;-70
2022/11/05 05:16:07;;;;;;;;;;;;;;;;;;5243694;27;20032;-69
2022/11/05 05:18:32;;;;;;;7.47;3.22;;;;;;;;;;5259141;27;19956;-70
2022/11/05 05:23:42;;;;;;;9.10;3.22;;;;;;;;;;5262044;27;19984;-68
2022/11/05 05:26:07;;;;;;;;;;;;;;;;;;5260905;27;20005;-70
2022/11/05 05:28:32;;;;;;;5.57;3.35;;;;;;;;;;5263306;27;19967;-72
2022/11/05 05:30:58;;;;;;;6.70;3.33;;;;;;;;;;5241138;27;20013;-68
2022/11/05 05:33:23;;;;;;;7.32;3.53;;;;;;;;;;5262518;27;20035;-68
2022/11/05 05:35:49;;;;;;;;;;;;;;;;;;5262718;27;20002;-69
2022/11/05 05:38:14;;;;;;;5.50;2.85;;;;;;;;;;5260134;27;19936;-69
2022/11/05 05:40:39;;;;;;;7.00;3.15;;;;;;;;;;5259958;27;20048;-68
2022/11/05 05:43:04;;;;;;;;;;;;;;;;;;5260545;27;20041;-68
2022/11/05 05:45:29;;;;;;;6.37;3.03;;;;;;;;;;5262535;27;19967;-68
2022/11/05 05:47:55;;;;;;;5.15;3.37;;;;;;;;;;5260038;27;20045;-70
2022/11/05 05:50:20;;;;;;;;;;;;;;;;;;5260438;27;20019;-69
2022/11/05 05:52:45;;;;;;;7.65;3.67;;;;;;;;;;5261169;27;20000;-69
2022/11/05 05:55:11;;;;;;;;;;;;;;;;;;5243353;27;20001;-69
2022/11/05 05:57:36;;;;;;;11.50;5.00;;;;;;;;;;5262538;27;19931;-69
2022/11/05 06:00:02;;;;;;;;;;;;;;;;;;5259008;27;20037;-70
2022/11/05 06:02:28;;;;;;;7.62;4.65;;;;;;;;;;5260121;27;20296;-69
2022/11/05 06:04:54;;;;;;;9.50;4.25;;;;;;;;;;5260268;27;20414;-69
2022/11/05 06:07:19;;;;;;;;;;;;;;;;;;5262611;27;20021;-69
2022/11/05 06:09:44;;;;;;;6.35;3.92;;;;;;;;;;5261055;27;19929;-69
2022/11/05 06:12:09;;;;;;;10.70;3.60;;;;;;;;;;5261951;27;20001;-69
2022/11/05 06:14:34;;;;;;;6.12;3.12;;;;;;;;;;5262104;27;20020;-69
2022/11/05 06:16:59;;;;;;;;;;;;;;;;;;5262316;27;20005;-69
2022/11/05 06:19:25;;;;;;;9.00;3.97;;;;;;;;;;5259785;27;19969;-69
2022/11/05 06:21:50;;;;;;;7.55;3.95;;;;;;;;;;5258166;27;20359;-69
2022/11/05 06:24:15;;;;;;;;;;;;;;;;;;5262410;27;20013;-69
2022/11/05 06:26:42;;;;;;;8.05;5.68;;;;;;;;;;5261933;27;19933;-70
2022/11/05 06:29:08;;;;;;;9.38;6.62;;;;;;;;;;5261980;27;20017;-69
2022/11/05 06:31:33;;;;;;;12.40;5.60;;;;;;;;;;5262288;27;20049;-69
2022/11/05 06:33:58;;;;;;;;;;;;;;;;;;5262197;27;20309;-69
2022/11/05 06:36:23;;;;;;;11.55;6.57;;;;;;;;;;5261199;27;20258;-69
2022/11/05 06:38:49;;;;;;;;;;;;;;;;;;5262269;27;20131;-70
2022/11/05 06:41:14;;;;;;;16.87;7.72;;;;;;;;;;5259533;27;19940;-69
2022/11/05 06:43:39;;;;;;;;;;;;;;;;;;5262714;27;20111;-70
2022/11/05 06:46:05;;;;;;;12.95;8.73;;;;;;;;;;5259522;27;20266;-69
2022/11/05 06:48:30;;;;;;;;;;;;;;;;;;5262959;27;20388;-69
2022/11/05 06:50:55;;;;;;;19.20;10.88;;;;;;;;;;5261933;27;20283;-69
2022/11/05 06:53:20;;;;;;;21.25;13.88;;;;;;;;;;5261683;27;20002;-68
2022/11/05 06:55:48;;;;;;;;;;;;;;;;;;5262229;27;20002;-69
2022/11/05 06:58:14;;;;;;;18.73;12.73;;;;;;;;;;5261928;27;19928;-69
2022/11/05 07:00:39;;;;;;;;;;;;;;;;;;5262033;27;20070;-68
2022/11/05 07:03:05;;;;;;;17.37;11.98;;;;;;;;;;5260513;27;19925;-70
2022/11/05 07:05:30;;;;;;;;;;;;;;;;;;5242398;27;20135;-68
2022/11/05 07:07:55;;;;;;;22.98;13.68;;;;;;;;;;5259745;27;19928;-68
2022/11/05 07:10:20;;;;;;;24.33;14.57;;;;;;;;;;5259740;27;20017;-68
2022/11/05 07:12:45;;;;;;;;;;;;;;;;;;5262484;27;20152;-69
2022/11/05 07:15:11;;;;;;;21.73;14.57;;;;;;;;;;5258204;27;19955;-69
2022/11/05 07:17:36;;;;;;;;;;;;;;;;;;5260481;27;20098;-69
2022/11/05 07:20:02;;;;;;;21.58;14.77;;;;;;;;;;5261404;27;19936;-69
2022/11/05 07:22:27;;;;;;;27.87;17.83;;;;;;;;;;5261636;27;20157;-69
2022/11/05 07:24:52;;;;;;;;;;;;;;;;;;5258208;27;20001;-70
2022/11/05 07:27:18;;;;;;;32.50;17.45;;;;;;;;;;5261663;27;19967;-69
2022/11/05 07:29:43;;;;;;;28.87;16.30;;;;;;;;;;5262011;27;20002;-69
2022/11/05 07:32:08;;;;;;;32.80;17.45;;;;;;;;;;5261768;27;20002;-68
2022/11/05 07:34:33;;;;;;;;;;;;;;;;;;5260318;27;20028;-68
2022/11/05 07:36:58;;;;;;;24.17;16.62;;;;;;;;;;5260707;27;19947;-69
2022/11/05 07:39:23;;;;;;;22.90;15.15;;;;;;;;;;5261373;27;20001;-68
2022/11/05 07:41:48;;;;;;;;;;;;;;;;;;5262807;27;19986;-69
2022/11/05 07:44:14;;;;;;;24.05;15.23;;;;;;;;;;5261728;27;19955;-68
2022/11/05 07:46:42;;;;;;;27.52;14.07;;;;;;;;;;5261476;27;20005;-69
2022/11/05 07:49:07;;;;;;;25.77;14.57;;;;;;;;;;5261934;27;20013;-68
2022/11/05 07:51:32;;;;;;;;;;;;;;;;;;5262473;27;20001;-69
2022/11/05 07:53:57;;;;;;;29.12;15.20;;;;;;;;;;5258801;27;19948;-69
2022/11/05 07:56:22;;;;;;;17.95;14.13;;;;;;;;;;5262347;27;20001;-69
2022/11/05 07:58:47;;;;;;;24.00;12.82;;;;;;;;;;5261041;27;20008;-69
2022/11/05 08:01:13;;;;;;;22.33;14.45;;;;;;;;;;5261070;27;20441;-68
2022/11/05 08:03:38;;;;;;;;;;;;;;;;;;5259310;27;20376;-69
2022/11/05 08:06:03;;;;;;;26.55;14.55;;;;;;;;;;5258716;27;19963;-69
2022/11/05 08:08:28;;;;;;;19.20;13.68;;;;;;;;;;5260547;27;20001;-68
2022/11/05 08:10:53;;;;;;;;;;;;;;;;;;5262185;27;20001;-69
2022/11/05 08:13:18;;;;;;;15.38;11.98;;;;;;;;;;5259719;27;19940;-68
2022/11/05 08:15:44;;;;;;;16.48;10.95;;;;;;;;;;5260087;27;20002;-69
2022/11/05 08:18:10;;;;;;;21.58;11.52;;;;;;;;;;5259738;27;20428;-70
2022/11/05 08:20:35;;;;;;;28.87;13.88;;;;;;;;;;5257637;27;20321;-70
2022/11/05 08:23:01;;;;;;;;;;;;;;;;;;5260308;27;20009;-68
2022/11/05 08:25:26;;;;;;;24.23;10.95;;;;;;;;;;5258934;27;19980;-69
2022/11/05 08:27:55;;;;;;;18.65;11.32;;;;;;;;;;5239623;27;20029;-68
2022/11/05 08:30:20;;;;;;;17.55;11.15;;;;;;;;;;5241784;27;20001;-68
2022/11/05 08:32:45;;;;;;;;;;;;;;;;;;5259344;27;20036;-70
2022/11/05 08:35:11;;;;;;;16.73;10.50;;;;;;;;;;5259577;27;19948;-69
2022/11/05 08:37:36;;;;;;;13.45;10.43;;;;;;;;;;5259105;27;20398;-69
2022/11/05 08:40:01;;;;;;;;;;;;;;;;;;5242437;27;20057;-68
2022/11/05 08:42:26;;;;;;;17.62;9.95;;;;;;;;;;5259979;27;19929;-70
2022/11/05 08:44:51;;;;;;;;;;;;;;;;;;5261913;27;20028;-69
2022/11/05 08:47:16;;;;;;;22.48;10.07;;;;;;;;;;5261409;27;19932;-69
2022/11/05 08:49:41;;;;;;;18.25;9.93;;;;;;;;;;5260431;27;20039;-69
2022/11/05 08:52:07;;;;;;;18.05;9.43;;;;;;;;;;5260500;27;20021;-70
2022/11/05 08:54:32;;;;;;;;;;;;;;;;;;5260410;27;20060;-69
2022/11/05 08:56:57;;;;;;;15.48;7.60;;;;;;;;;;5258461;27;19936;-70
2022/11/05 08:59:22;;;;;;;11.98;7.03;;;;;;;;;;5262957;27;20059;-70
2022/11/05 09:01:49;;;;;;;;;;;;;;;;;;5262405;27;20057;-70
2022/11/05 09:04:14;;;;;;;16.02;7.40;;;;;;;;;;5259799;27;19940;-71
2022/11/05 09:06:39;;;;;;;;;;;;;;;;;;5262029;27;20025;-71
2022/11/05 09:09:04;;;;;;;12.68;7.10;;;;;;;;;;5260199;27;20274;-70
2022/11/05 09:11:30;;;;;;;11.48;6.57;;;;;;;;;;5262339;27;20039;-68
2022/11/05 09:13:55;;;;;;;12.77;6.03;;;;;;;;;;5262338;27;20002;-68
2022/11/05 09:16:21;;;;;;;8.00;5.37;;;;;;;;;;5258519;27;20014;-70
2022/11/05 09:18:46;;;;;;;17.50;5.35;;;;;;;;;;5260054;27;20400;-70
2022/11/05 09:21:11;;;;;;;;;;;;;;;;;;5262577;27;20036;-70
2022/11/05 09:23:37;;;;;;;10.10;3.90;;;;;;;;;;5260307;27;19932;-71
2022/11/05 09:26:02;;;;;;;8.85;3.97;;;;;;;;;;5258514;27;20368;-71
2022/11/05 09:28:27;;;;;;;9.68;4.00;;;;;;;;;;5262963;27;20001;-71
2022/11/05 09:30:53;;;;;;;11.00;4.07;;;;;;;;;;5258525;27;20009;-69
2022/11/05 09:33:20;;;;;;;8.95;3.45;;;;;;;;;;5262455;27;20395;-69
2022/11/05 09:35:45;;;;;;;8.48;3.10;;;;;;;;;;5260742;27;20010;-70
2022/11/05 09:38:10;;;;;;;;;;;;;;;;;;5263583;27;20333;-70
2022/11/05 09:40:37;;;;;;;15.65;3.92;;;;;;;;;;5260664;27;19929;-71
2022/11/05 09:43:04;;;;;;;20.73;4.32;;;;;;;;;;5264888;27;20014;-70
2022/11/05 09:45:30;;;;;;;10.23;3.05;;;;;;;;;;5263720;27;20009;-70
2022/11/05 09:47:58;;;;;;;7.47;4.00;;;;;;;;;;5265714;27;20313;-69
2022/11/05 09:50:29;;;;;;;8.35;4.00;;;;;;;;;;5263083;27;19998;-71
2022/11/05 09:52:54;;;;;;;7.40;3.70;;;;;;;;;;5266097;27;20370;-70
2022/11/05 09:55:19;;;;;;;;;;;;;;;;;;5264395;27;20002;-71
2022/11/05 09:57:48;;;;;;;9.10;3.67;;;;;;;;;;5262249;27;19932;-71
2022/11/05 10:00:17;;;;;;;6.70;3.78;;;;;;;;;;5259365;27;20013;-69
2022/11/05 10:02:59;;;;;;;10.07;3.53;;;;;;;;;;5259903;27;20041;-70
2022/11/05 10:05:25;;;;;;;11.77;3.78;;;;;;;;;;5262049;27;20016;-71
2022/11/05 10:08:09;;;;;;;10.23;4.05;;;;;;;;;;5260163;27;20027;-71
2022/11/05 10:10:40;;;;;;;9.27;3.58;;;;;;;;;;5258444;27;20036;-71
2022/11/05 10:13:12;;;;;;;7.78;3.08;;;;;;;;;;5261046;27;20043;-71
2022/11/05 10:15:40;;;;;;;9.30;3.95;;;;;;;;;;5259956;27;20400;-70
2022/11/05 10:18:15;;;;;;;7.82;3.62;;;;;;;;;;5261321;27;20009;-73
2022/11/05 10:20:41;;;;;;;7.82;3.83;;;;;;;;;;5260158;27;20075;-69
2022/11/05 10:23:06;;;;;;;;;;;;;;;;;;5260190;27;20009;-69
2022/11/05 10:25:35;;;;;;;5.40;3.53;;;;;;;;;;5259200;27;19933;-69
2022/11/05 10:28:02;;;;;;;9.32;4.45;;;;;;;;;;5259074;27;20021;-68
2022/11/05 10:30:27;;;;;;;7.28;3.80;;;;;;;;;;5239922;27;20408;-70
2022/11/05 10:32:52;;;;;;;;;;;;;;;;;;5260331;27;20009;-69
2022/11/05 10:35:21;;;;;;;7.03;3.92;;;;;;;;;;5259259;27;19928;-70
2022/11/05 10:37:46;;;;;;;10.82;3.87;;;;;;;;;;5259964;27;20002;-70
2022/11/05 10:40:11;;;;;;;;;;;;;;;;;;5258791;27;20100;-69
2022/11/05 10:42:52;;;;;;;8.05;3.78;;;;;;;;;;5259125;27;20040;-70
2022/11/05 10:45:17;;;;;;;8.07;4.65;;;;;;;;;;5261581;27;20002;-68
2022/11/05 10:47:42;;;;;;;6.43;3.80;;;;;;;;;;5260023;27;20464;-69
2022/11/05 10:50:24;;;;;;;12.66;5.20;;;;;;;;;;5262475;27;20380;-70
2022/11/05 10:53:18;;;;;;;10.63;4.30;;;;;;;;;;5260693;27;20002;-69
2022/11/05 10:55:45;;;;;;;6.97;3.95;;;;;;;;;;5248348;27;20017;-69
2022/11/05 10:58:21;;;;;;;6.80;4.40;;;;;;;;;;5258662;27;20002;-68
2022/11/05 11:00:49;;;;;;;10.50;3.75;;;;;;;;;;5261194;27;20116;-69
2022/11/05 11:03:33;;;;;;;14.25;3.72;;;;;;;;;;5258873;27;20043;-70
2022/11/05 11:05:59;;;;;;;5.80;3.47;;;;;;;;;;5260857;27;20044;-70
2022/11/05 11:08:24;;;;;;;8.05;3.67;;;;;;;;;;5241342;27;20323;-68
2022/11/05 11:10:50;;;;;;;;;;;;;;;;;;5262131;27;20053;-69
2022/11/05 11:13:20;;;;;;;7.53;3.42;;;;;;;;;;5261910;27;19936;-69
2022/11/05 11:15:45;;;;;;;9.60;4.12;;;;;;;;;;5261002;27;20006;-69
2022/11/05 11:18:10;;;;;;;;;;;;;;;;;;5261677;27;20035;-68
2022/11/05 11:20:42;;;;;;;6.35;3.42;;;;;;;;;;5259121;27;19935;-69
2022/11/05 11:23:14;;;;;;;11.27;4.32;;;;;;;;;;5259429;27;20047;-70
2022/11/05 11:25:52;;;;;;;7.30;3.83;;;;;;;;;;5258187;27;20048;-69
2022/11/05 11:28:26;;;;;;;10.25;3.35;;;;;;;;;;5258967;27;20006;-69
2022/11/05 11:30:59;;;;;;;11.15;7.82;;;;;;;;;;5261066;27;20059;-69
2022/11/05 11:33:25;;;;;;;7.10;3.20;;;;;;;;;;5261845;27;20365;-71
2022/11/05 11:35:50;;;;;;;12.37;3.30;;;;;;;;;;5259915;27;20010;-70
2022/11/05 11:38:16;;;;;;;10.40;3.17;;;;;;;;;;5259410;27;20001;-70
2022/11/05 11:40:41;;;;;;;8.07;3.05;;;;;;;;;;5258407;27;20021;-70
2022/11/05 11:43:27;;;;;;;6.60;3.03;;;;;;;;;;5261542;27;20014;-70
2022/11/05 11:45:53;;;;;;;5.97;2.95;;;;;;;;;;5258405;27;20033;-71
2022/11/05 11:48:21;;;;;;;9.70;3.42;;;;;;;;;;5261357;27;20005;-73
2022/11/05 11:50:47;;;;;;;6.85;3.53;;;;;;;;;;5257174;27;20291;-70
2022/11/05 11:53:19;;;;;;;8.43;3.67;;;;;;;;;;5260532;27;20025;-71
2022/11/05 11:55:56;;;;;;;9.15;3.12;;;;;;;;;;5259978;27;20014;-70
2022/11/05 11:58:22;;;;;;;9.63;3.90;;;;;;;;;;5257147;27;20028;-71
2022/11/05 12:00:48;;;;;;;;;;;;;;;;;;5260406;27;20001;-72
2022/11/05 12:03:24;;;;;;;6.60;3.75;;;;;;;;;;5260151;27;19939;-71
2022/11/05 12:05:59;;;;;;;5.78;2.95;;;;;;;;;;5261314;27;20163;-73
2022/11/05 12:08:24;;;;;;;6.30;3.10;;;;;;;;;;5261629;27;20057;-72
2022/11/05 12:10:56;;;;;;;7.93;3.22;;;;;;;;;;5257491;27;20138;-71
2022/11/05 12:13:21;;;;;;;8.50;3.70;;;;;;;;;;5260340;27;20408;-72
2022/11/05 12:15:46;;;;;;;;;;;;;;;;;;5261751;27;20048;-71
2022/11/05 12:18:16;;;;;;;7.05;3.70;;;;;;;;;;5260715;27;19944;-72
2022/11/05 12:20:53;;;;;;;8.93;4.22;;;;;;;;;;5262337;27;20165;-71
2022/11/05 12:23:19;;;;;;;11.12;3.92;;;;;;;;;;5261055;27;20029;-72
2022/11/05 12:25:44;;;;;;;;;;;;;;;;;;5261033;27;20005;-71
2022/11/05 12:28:15;;;;;;;9.38;4.70;;;;;;;;;;5260164;27;19936;-72
2022/11/05 12:30:47;;;;;;;16.20;5.03;;;;;;;;;;5262964;27;20000;-73
2022/11/05 12:33:19;;;;;;;10.98;4.05;;;;;;;;;;5243468;27;20055;-73
2022/11/05 12:36:02;;;;;;;9.38;4.70;;;;;;;;;;5263096;27;20040;-72
2022/11/05 12:38:34;;;;;;;13.75;5.00;;;;;;;;;;5240743;27;20293;-72
2022/11/05 12:41:04;;;;;;;9.68;4.20;;;;;;;;;;5259832;27;20435;-71
2022/11/05 12:43:42;;;;;;;8.85;4.22;;;;;;;;;;5260829;27;20391;-71
2022/11/05 12:46:07;;;;;;;8.52;4.93;;;;;;;;;;5262452;27;20006;-72
2022/11/05 12:48:32;;;;;;;;;;;;;;;;;;5261091;27;20012;-73
2022/11/05 12:51:09;;;;;;;9.45;4.35;;;;;;;;;;5258769;27;19929;-72
2022/11/05 12:53:40;;;;;;;11.45;5.18;;;;;;;;;;5260725;27;20000;-72
2022/11/05 12:56:10;;;;;;;10.90;4.78;;;;;;;;;;5262228;27;20002;-72
2022/11/05 12:58:37;;;;;;;13.38;4.62;;;;;;;;;;5262423;27;20314;-71
2022/11/05 13:01:06;;;;;;;12.30;4.18;;;;;;;;;;5262832;27;20033;-71
2022/11/05 13:03:34;;;;;;;10.75;4.40;;;;;;;;;;5259527;27;20008;-70
2022/11/05 13:06:08;;;;;;;7.80;3.97;;;;;;;;;;5260053;27;20392;-72
2022/11/05 13:08:50;;;;;;;8.77;4.30;;;;;;;;;;5259459;27;20124;-72
2022/11/05 13:11:18;;;;;;;8.43;4.35;;;;;;;;;;5261728;27;20005;-72
2022/11/05 13:13:43;;;;;;;13.35;4.25;;;;;;;;;;5261533;27;20051;-71
2022/11/05 13:16:08;;;;;;;;;;;;;;;;;;5259853;27;20018;-72
2022/11/05 13:18:39;;;;;;;11.10;4.80;;;;;;;;;;5260657;27;19936;-72
2022/11/05 13:21:05;;;;;;;11.12;4.00;;;;;;;;;;5262016;27;19998;-72
2022/11/05 13:23:34;;;;;;;8.75;4.03;;;;;;;;;;5259999;27;19997;-71
2022/11/05 13:26:06;;;;;;;7.82;3.97;;;;;;;;;;5239281;27;20010;-71
2022/11/05 13:28:40;;;;;;;10.77;4.07;;;;;;;;;;5257935;27;20014;-71
2022/11/05 13:31:08;;;;;;;14.98;4.18;;;;;;;;;;5262134;27;20029;-72
2022/11/05 13:33:35;;;;;;;8.65;3.75;;;;;;;;;;5259266;27;20009;-71
2022/11/05 13:39:07;;;;;;;12.88;4.12;;;;;;;;;;5262279;27;20052;-72
2022/11/05 13:41:39;;;;;;;8.20;3.97;;;;;;;;;;5241447;27;20072;-71
2022/11/05 13:44:07;;;;;;;10.75;3.95;;;;;;;;;;5262379;27;19997;-71
2022/11/05 13:46:44;;;;;;;12.52;4.37;;;;;;;;;;5259520;27;20378;-71
2022/11/05 13:49:28;;;;;;;7.82;3.35;;;;;;;;;;5260416;27;20004;-71
2022/11/05 13:52:01;;;;;;;9.60;4.00;;;;;;;;;;5262242;27;20047;-71
2022/11/05 13:54:29;;;;;;;10.75;3.55;;;;;;;;;;5260691;27;20000;-71
2022/11/05 13:56:57;;;;;;;8.88;4.60;;;;;;;;;;5261681;27;20001;-71
2022/11/05 13:59:25;;;;;;;11.68;4.03;;;;;;;;;;5259939;27;20387;-71
2022/11/05 14:01:58;;;;;;;12.02;4.32;;;;;;;;;;5258261;27;20006;-70
2022/11/05 14:04:27;;;;;;;5.60;3.70;;;;;;;;;;5241048;27;20001;-72
2022/11/05 14:06:53;;;;;;;9.88;3.92;;;;;;;;;;5261724;27;20214;-71
2022/11/05 14:09:22;;;;;;;12.02;5.12;;;;;;;;;;5258093;27;20327;-71
2022/11/05 14:11:50;;;;;;;9.30;4.47;;;;;;;;;;5259845;27;20055;-72
2022/11/05 14:14:23;;;;;;;10.65;3.87;;;;;;;;;;5262313;27;20009;-72
2022/11/05 14:16:53;;;;;;;11.15;3.67;;;;;;;;;;5260015;27;20036;-71
2022/11/05 14:19:18;;;;;;;11.27;4.20;;;;;;;;;;5259421;27;20005;-71
2022/11/05 14:21:45;;;;;;;;;;;;;;;;;;5260692;27;20072;-71
2022/11/05 14:24:24;;;;;;;9.10;4.15;;;;;;;;;;5260286;27;19940;-72
2022/11/05 14:27:01;;;;;;;12.57;4.30;;;;;;;;;;5261696;27;20380;-71
2022/11/05 14:29:39;;;;;;;12.75;4.90;;;;;;;;;;5262313;27;20010;-71
2022/11/05 14:32:14;;;;;;;8.75;4.25;;;;;;;;;;5260747;27;20005;-72
2022/11/05 14:34:41;;;;;;;9.38;4.43;;;;;;;;;;5260054;27;20369;-71
2022/11/05 14:37:09;;;;;;;10.63;4.57;;;;;;;;;;5257413;27;20060;-71
2022/11/05 14:39:35;;;;;;;11.60;5.10;;;;;;;;;;5261128;27;20032;-71
2022/11/05 14:42:00;;;;;;;;;;;;;;;;;;5262154;27;19994;-71
2022/11/05 14:44:26;;;;;;;8.70;4.15;;;;;;;;;;5261334;27;19936;-72
2022/11/05 14:46:53;;;;;;;12.77;4.82;;;;;;;;;;5260478;27;20021;-72
2022/11/05 14:49:24;;;;;;;12.40;5.00;;;;;;;;;;5261719;27;20005;-72
2022/11/05 14:51:57;;;;;;;10.40;4.20;;;;;;;;;;5261696;27;20053;-73
2022/11/05 14:54:30;;;;;;;11.30;3.97;;;;;;;;;;5259615;27;20033;-70
2022/11/05 14:56:57;;;;;;;8.50;4.37;;;;;;;;;;5259411;27;20004;-72
2022/11/05 14:59:22;;;;;;;10.70;5.00;;;;;;;;;;5259111;27;20012;-72
2022/11/05 15:01:47;;;;;;;9.82;4.87;;;;;;;;;;5260800;27;20369;-70
2022/11/05 15:04:16;;;;;;;12.75;5.18;;;;;;;;;;5261854;27;20348;-73
2022/11/05 15:07:01;;;;;;;16.08;4.90;;;;;;;;;;5259154;27;20380;-71
2022/11/05 15:09:33;;;;;;;10.10;4.55;;;;;;;;;;5260705;27;20002;-72
2022/11/05 15:12:02;;;;;;;9.45;4.20;;;;;;;;;;5259100;27;20017;-70
2022/11/05 15:14:31;;;;;;;7.72;4.03;;;;;;;;;;5241767;27;20309;-71
2022/11/05 15:17:00;;;;;;;7.60;3.87;;;;;;;;;;5261502;27;20043;-71
2022/11/05 15:19:30;;;;;;;7.97;4.07;;;;;;;;;;5261334;27;20005;-71
2022/11/05 15:21:56;;;;;;;11.65;5.25;;;;;;;;;;5260560;27;20009;-71
2022/11/05 15:24:22;;;;;;;10.18;4.57;;;;;;;;;;5260938;27;20020;-71
2022/11/05 15:26:57;;;;;;;9.82;3.80;;;;;;;;;;5258697;27;20406;-71
2022/11/05 15:29:24;;;;;;;10.18;4.35;;;;;;;;;;5259593;27;20033;-72
2022/11/05 15:31:50;;;;;;;10.55;4.25;;;;;;;;;;5261602;27;20001;-71
2022/11/05 15:34:15;;;;;;;;;;;;;;;;;;5260871;27;20028;-72
2022/11/05 15:36:45;;;;;;;10.75;4.47;;;;;;;;;;5260963;27;19929;-71
2022/11/05 15:39:22;;;;;;;12.18;5.03;;;;;;;;;;5261353;27;20005;-72
2022/11/05 15:41:47;;;;;;;16.10;4.95;;;;;;;;;;5261279;27;20013;-72
2022/11/05 15:44:12;;;;;;;;;;;;;;;;;;5261305;27;20051;-71
2022/11/05 15:46:37;;;;;;;15.90;5.10;;;;;;;;;;5260850;27;19948;-71